Terminal Aerodrome Forecast
Issued by NWS

Home | Current Version | Previous Version | Text Only | Print | Product List | Glossary On
Versions: 1 2 3 4 5 6 7 8 9 10 11 12
000
FTUS45 KPSR 052328
TAFIWA
TAF
KIWA 052328Z 0600/0624 22018G30KT P6SM SCT250
     FM060400 25009KT P6SM FEW150 FEW250
     FM061000 15010KT P6SM FEW050 SCT090
     FM061500 18011KT P6SM SCT050 BKN070
     FM062000 24015G22KT P6SM SCT050 BKN080
      AMD LTD TO CLD VIS AND WIND 0603/0613=

USA.gov is the U.S. government's official web portal to all federal, state and local government web resources and services.